Time;durP1;ratioP1;P1;durP2;ratioP2;P2;SDS_P1;SDS_P2;PMS_P1;PMS_P2;Temp;Humidity;BMP_temperature;BMP_pressure;BME280_temperature;BME280_humidity;BME280_pressure;Samples;Min_cycle;Max_cycle;Signal;HPM_P1;HPM_P2
2021/09/05 00:00:40;;;;;;;7.90;5.40;;;;;;;19.25;57.02;99955.66;5125388;27;20062;-73
2021/09/05 00:03:05;;;;;;;10.73;5.68;;;;;;;19.29;57.42;99954.22;5124381;27;20087;-73
2021/09/05 00:05:31;;;;;;;13.15;5.88;;;;;;;19.39;57.16;99957.25;5123684;27;20027;-69
2021/09/05 00:07:56;;;;;;;8.55;5.80;;;;;;;19.46;56.69;99951.84;5125140;28;20177;-69
2021/09/05 00:10:22;;;;;;;11.63;4.85;;;;;;;19.44;56.60;99952.06;5127167;28;20034;-73
2021/09/05 00:12:47;;;;;;;9.02;5.47;;;;;;;19.39;56.83;99954.56;5125341;28;20058;-73
2021/09/05 00:15:13;;;;;;;8.55;5.03;;;;;;;19.37;56.84;99956.66;5104231;28;20027;-73
2021/09/05 00:17:38;;;;;;;11.55;5.90;;;;;;;19.29;56.82;99954.22;5124285;28;20094;-73
2021/09/05 00:20:05;;;;;;;8.93;4.95;;;;;;;19.08;57.75;99963.38;5125781;28;20035;-69
2021/09/05 00:22:31;;;;;;;10.65;5.65;;;;;;;19.08;57.64;99962.56;5123033;28;20027;-68
2021/09/05 00:24:56;;;;;;;8.73;5.72;;;;;;;19.26;57.29;99969.91;5127564;27;20042;-69
2021/09/05 00:27:22;;;;;;;9.18;5.68;;;;;;;19.38;57.18;99966.34;5122939;28;20031;-68
2021/09/05 00:29:47;;;;;;;9.82;4.95;;;;;;;19.38;57.15;99970.91;5124573;28;20039;-68
2021/09/05 00:32:12;;;;;;;9.55;5.60;;;;;;;19.37;57.39;99980.00;5122458;28;20317;-73
2021/09/05 00:34:38;;;;;;;7.35;4.90;;;;;;;19.48;56.68;99973.13;5128237;28;20038;-69
2021/09/05 00:37:03;;;;;;;9.82;4.80;;;;;;;19.42;56.59;99972.13;5124264;28;20042;-73
2021/09/05 00:39:29;;;;;;;11.20;5.07;;;;;;;19.26;57.59;99975.28;5125284;28;20065;-69
2021/09/05 00:41:54;;;;;;;14.00;6.60;;;;;;;18.98;58.89;99973.72;5121374;28;20040;-69
2021/09/05 00:44:20;;;;;;;10.27;6.13;;;;;;;18.89;58.84;99975.00;5125155;28;20031;-73
2021/09/05 00:46:45;;;;;;;14.05;6.15;;;;;;;18.92;58.84;99971.91;5125897;28;20044;-69
2021/09/05 00:49:11;;;;;;;8.02;5.82;;;;;;;19.02;58.77;99974.97;5124576;28;20055;-69
2021/09/05 00:51:39;;;;;;;14.02;5.68;;;;;;;19.05;58.72;99973.72;5121237;28;20330;-69
2021/09/05 00:54:06;;;;;;;9.60;5.07;;;;;;;19.02;58.38;99982.19;5124974;28;20252;-69
2021/09/05 00:56:33;;;;;;;9.63;5.28;;;;;;;18.90;59.23;99976.66;5122048;28;20221;-73
2021/09/05 00:59:07;;;;;;;11.23;5.68;;;;;;;18.95;59.02;99979.53;5126267;28;20080;-69
2021/09/05 01:01:36;;;;;;;11.38;6.22;;;;;;;18.98;58.63;99981.78;5122505;28;20031;-69
2021/09/05 01:04:03;;;;;;;9.07;5.03;;;;;;;18.93;58.78;99983.44;5126577;27;20031;-72
2021/09/05 01:06:28;;;;;;;10.32;5.97;;;;;;;18.84;59.83;99988.22;5123082;27;20028;-73
2021/09/05 01:08:54;;;;;;;9.68;5.93;;;;;;;18.88;59.90;100000.19;5126423;27;20115;-69
2021/09/05 01:11:20;;;;;;;9.93;6.40;;;;;;;18.75;60.02;100003.72;5129062;27;20036;-72
2021/09/05 01:13:46;;;;;;;12.40;6.13;;;;;;;18.78;60.16;99999.78;5128484;27;20047;-69
2021/09/05 01:16:24;;;;;;;12.48;6.70;;;;;;;18.64;60.59;100003.50;5128948;27;20043;-73
2021/09/05 01:18:49;;;;;;;10.10;7.18;;;;;;;18.63;60.29;100009.88;5126539;27;20035;-69
2021/09/05 01:21:15;;;;;;;16.30;6.97;;;;;;;18.46;60.33;100006.78;5126801;27;20257;-73
2021/09/05 01:23:40;;;;;;;11.13;6.65;;;;;;;18.51;59.51;99999.75;5128395;27;20019;-68
2021/09/05 01:26:07;;;;;;;10.60;6.70;;;;;;;18.48;59.51;99997.50;5131485;27;20203;-69
2021/09/05 01:28:32;;;;;;;9.00;6.75;;;;;;;18.41;59.82;100006.56;5127395;27;20023;-69
2021/09/05 01:30:58;;;;;;;14.05;7.03;;;;;;;18.48;59.53;100007.38;5125268;27;20044;-68
2021/09/05 01:33:23;;;;;;;10.85;6.32;;;;;;;18.41;59.05;100004.72;5126879;27;20212;-69
2021/09/05 01:35:49;;;;;;;17.95;7.03;;;;;;;18.36;59.37;100001.00;5128625;27;20062;-73
2021/09/05 01:38:14;;;;;;;11.45;5.95;;;;;;;18.54;58.80;100000.38;5126434;27;20332;-68
2021/09/05 01:40:40;;;;;;;10.20;6.25;;;;;;;18.45;58.70;100005.94;5128358;27;20242;-69
2021/09/05 01:43:05;;;;;;;14.70;7.03;;;;;;;18.38;59.09;100009.66;5126415;27;20406;-73
2021/09/05 01:45:31;;;;;;;19.20;6.32;;;;;;;18.33;59.15;100007.59;5127411;27;20031;-69
2021/09/05 01:47:56;;;;;;;15.45;6.38;;;;;;;18.42;58.87;99998.31;5127481;27;20054;-69
2021/09/05 01:50:21;;;;;;;9.65;6.13;;;;;;;18.46;58.71;100001.41;5109551;27;20023;-73
2021/09/05 01:52:47;;;;;;;11.23;5.82;;;;;;;18.37;59.00;100005.31;5125823;27;20046;-72
2021/09/05 01:55:13;;;;;;;10.77;6.18;;;;;;;18.37;58.69;100014.19;5131292;27;20260;-73
2021/09/05 01:57:39;;;;;;;8.82;5.35;;;;;;;18.42;58.40;100006.34;5124474;27;20035;-73
2021/09/05 02:00:05;;;;;;;13.15;5.85;;;;;;;18.46;58.45;100009.44;5129350;27;20044;-73
2021/09/05 02:02:31;;;;;;;12.27;5.43;;;;;;;18.44;58.37;100014.19;5127477;27;20039;-68
2021/09/05 02:04:57;;;;;;;11.80;5.05;;;;;;;18.53;58.32;100007.59;5127369;27;20083;-73
2021/09/05 02:07:22;;;;;;;14.40;6.30;;;;;;;18.57;58.36;100008.81;5125745;27;20043;-72
2021/09/05 02:09:48;;;;;;;12.30;5.55;;;;;;;18.52;58.89;100011.31;5127814;27;20023;-69
2021/09/05 02:12:14;;;;;;;23.67;6.57;;;;;;;18.50;59.32;100019.56;5125009;27;20313;-73
2021/09/05 02:14:40;;;;;;;36.83;7.10;;;;;;;18.61;58.71;100020.81;5126171;27;20365;-69
2021/09/05 02:17:05;;;;;;;16.00;6.32;;;;;;;18.60;58.82;100021.81;5128125;27;20028;-73
2021/09/05 02:19:33;;;;;;;18.55;5.97;;;;;;;18.63;58.73;100018.75;5128230;27;20031;-72
2021/09/05 02:21:58;;;;;;;16.02;5.50;;;;;;;18.65;59.26;100015.88;5124966;27;20042;-69
2021/09/05 02:24:24;;;;;;;20.77;5.95;;;;;;;18.57;59.19;100022.25;5130971;27;20019;-69
2021/09/05 02:26:49;;;;;;;15.07;5.70;;;;;;;18.47;59.45;100021.81;5126419;27;20034;-73
2021/09/05 02:29:15;;;;;;;13.80;5.30;;;;;;;18.49;59.40;100027.81;5128169;27;20023;-68
2021/09/05 02:31:40;;;;;;;12.18;5.90;;;;;;;18.60;59.37;100013.78;5127507;27;20036;-73
2021/09/05 02:34:05;;;;;;;10.20;5.28;;;;;;;18.53;59.72;100010.28;5125813;27;20040;-73
2021/09/05 02:36:31;;;;;;;8.07;5.13;;;;;;;18.57;59.31;100022.25;5128486;27;20069;-69
2021/09/05 02:38:56;;;;;;;10.57;5.60;;;;;;;18.47;59.46;100013.78;5127099;27;20665;-73
2021/09/05 02:41:22;;;;;;;11.20;5.63;;;;;;;18.58;59.03;100015.00;5108572;27;20020;-73
2021/09/05 02:43:47;;;;;;;10.90;5.47;;;;;;;18.56;59.19;100025.13;5124089;27;20031;-73
2021/09/05 02:46:13;;;;;;;10.05;5.55;;;;;;;18.42;59.52;100022.44;5127702;27;20069;-73
2021/09/05 02:48:39;;;;;;;12.88;5.72;;;;;;;18.44;59.85;100020.38;5122792;27;20027;-72
2021/09/05 02:51:04;;;;;;;12.73;5.68;;;;;;;18.44;59.64;100023.06;5128264;27;20077;-73
2021/09/05 02:53:30;;;;;;;18.98;6.13;;;;;;;18.43;59.74;100008.00;5126932;27;20321;-73
2021/09/05 02:55:55;;;;;;;15.98;5.90;;;;;;;18.31;60.16;100014.19;5127788;27;20102;-73
2021/09/05 02:58:20;;;;;;;20.02;6.68;;;;;;;18.42;59.85;100024.31;5105023;28;20127;-69
2021/09/05 03:00:46;;;;;;;12.57;5.90;;;;;;;18.43;59.62;100013.38;5126051;27;20031;-69
2021/09/05 03:03:11;;;;;;;11.68;5.43;;;;;;;18.34;59.67;100021.81;5124929;27;20035;-69
2021/09/05 03:05:37;;;;;;;12.93;6.25;;;;;;;18.17;60.21;100024.09;5126704;27;20035;-69
2021/09/05 03:08:02;;;;;;;11.77;5.63;;;;;;;18.16;60.13;100020.56;5122253;27;20305;-68
2021/09/05 03:10:28;;;;;;;13.70;6.22;;;;;;;18.09;60.67;100017.06;5126960;27;20042;-73
2021/09/05 03:12:53;;;;;;;16.27;6.53;;;;;;;18.05;61.06;100023.03;5125875;27;20043;-69
2021/09/05 03:15:19;;;;;;;12.25;6.13;;;;;;;18.12;60.20;100022.00;5131289;27;20041;-72
2021/09/05 03:17:44;;;;;;;8.40;5.97;;;;;;;18.09;60.75;100029.63;5107165;27;20116;-73
2021/09/05 03:20:10;;;;;;;13.43;5.65;;;;;;;18.35;59.36;100024.31;5125599;27;20309;-69
2021/09/05 03:22:36;;;;;;;10.45;6.20;;;;;;;18.23;59.62;100025.94;5116648;27;20015;-68
2021/09/05 03:25:02;;;;;;;15.85;6.25;;;;;;;18.06;60.21;100014.78;5128251;27;20198;-73
2021/09/05 03:27:27;;;;;;;14.65;6.13;;;;;;;18.08;60.41;100023.44;5122166;27;20039;-69
2021/09/05 03:29:52;;;;;;;12.55;6.35;;;;;;;18.12;60.56;100022.00;5127848;27;20050;-73
2021/09/05 03:32:18;;;;;;;13.13;6.10;;;;;;;17.93;60.86;100027.34;5123934;27;20028;-69
2021/09/05 03:34:43;;;;;;;16.42;6.90;;;;;;;17.95;61.57;100028.78;5126428;27;20023;-73
2021/09/05 03:37:09;;;;;;;11.35;5.95;;;;;;;17.89;60.87;100012.69;5123922;27;20064;-72
2021/09/05 03:39:34;;;;;;;14.27;7.10;;;;;;;18.05;61.01;100034.56;5128774;27;20055;-72
2021/09/05 03:42:00;;;;;;;20.10;6.78;;;;;;;18.13;60.90;100039.75;5124378;27;20325;-72
2021/09/05 03:44:25;;;;;;;20.35;7.35;;;;;;;18.12;60.89;100042.63;5126234;27;20037;-73
2021/09/05 03:46:51;;;;;;;16.85;7.05;;;;;;;18.19;60.88;100055.00;5125950;27;20042;-70
2021/09/05 03:49:16;;;;;;;13.68;6.15;;;;;;;18.17;61.04;100050.88;5124793;27;20027;-73
2021/09/05 03:51:41;;;;;;;11.52;6.90;;;;;;;17.99;61.75;100059.50;5124677;27;20039;-69
2021/09/05 03:54:07;;;;;;;18.30;6.07;;;;;;;17.92;61.73;100064.03;5127335;27;20291;-73
2021/09/05 03:56:32;;;;;;;14.20;6.82;;;;;;;18.09;61.25;100057.25;5124199;27;20333;-68
2021/09/05 03:59:02;;;;;;;20.15;6.75;;;;;;;17.89;62.16;100061.75;5126446;27;20080;-69
2021/09/05 04:01:29;;;;;;;10.25;6.05;;;;;;;17.95;62.06;100058.25;5123237;27;20111;-69
2021/09/05 04:03:54;;;;;;;12.63;6.75;;;;;;;18.01;62.20;100052.09;5124357;27;20031;-69
2021/09/05 04:06:20;;;;;;;12.85;6.97;;;;;;;18.13;61.49;100061.19;5122584;28;20035;-72
2021/09/05 04:08:48;;;;;;;11.30;6.75;;;;;;;18.41;60.57;100063.69;5107645;28;20324;-73
2021/09/05 04:11:14;;;;;;;11.23;6.38;;;;;;;18.24;61.61;100070.47;5124127;28;20076;-69
2021/09/05 04:13:39;;;;;;;13.60;7.13;;;;;;;18.35;60.98;100063.69;5125526;28;20321;-72
2021/09/05 04:16:05;;;;;;;23.35;13.52;;;;;;;18.23;61.40;100068.84;5125590;28;20358;-68
2021/09/05 04:18:30;;;;;;;15.48;8.68;;;;;;;18.24;61.72;100062.44;5127289;28;20062;-69
2021/09/05 04:20:56;;;;;;;15.30;8.48;;;;;;;18.51;60.54;100065.97;5126657;27;20036;-73
2021/09/05 04:23:21;;;;;;;12.13;7.82;;;;;;;18.61;60.21;100057.50;5123131;28;20075;-73
2021/09/05 04:25:47;;;;;;;12.85;8.00;;;;;;;18.36;61.49;100065.34;5126133;28;20047;-73
2021/09/05 04:28:12;;;;;;;16.08;8.52;;;;;;;18.19;61.74;100065.72;5124059;28;20313;-73
2021/09/05 04:30:38;;;;;;;24.38;8.57;;;;;;;18.30;62.07;100075.03;5127140;28;20389;-69
2021/09/05 04:33:05;;;;;;;16.30;8.23;;;;;;;18.31;61.80;100070.50;5122296;28;20059;-73
2021/09/05 04:35:30;;;;;;;16.02;10.80;;;;;;;18.13;62.55;100076.44;5126294;28;20214;-73
2021/09/05 04:37:56;;;;;;;18.00;9.82;;;;;;;18.16;62.59;100076.03;5121955;28;20027;-73
2021/09/05 04:40:21;;;;;;;19.77;10.20;;;;;;;18.13;62.63;100069.22;5114494;27;20015;-69
2021/09/05 04:42:46;;;;;;;17.02;13.38;;;;;;;18.27;62.06;100066.56;5130437;27;20050;-72
2021/09/05 04:45:12;;;;;;;16.95;9.95;;;;;;;18.38;62.09;100079.38;5129040;27;20076;-69
2021/09/05 04:47:37;;;;;;;22.42;9.57;;;;;;;18.46;62.09;100081.84;5127595;27;20214;-73
2021/09/05 04:50:04;;;;;;;19.15;9.18;;;;;;;18.58;61.49;100082.06;5128865;27;20272;-73
2021/09/05 04:52:29;;;;;;;16.58;8.90;;;;;;;18.90;61.02;100083.16;5125300;27;20087;-73
2021/09/05 04:54:55;;;;;;;15.88;8.93;;;;;;;18.92;61.01;100079.22;5127474;27;20043;-73
2021/09/05 04:57:20;;;;;;;14.45;8.68;;;;;;;19.02;60.33;100082.31;5106362;28;20225;-69
2021/09/05 04:59:45;;;;;;;18.17;9.30;;;;;;;19.00;60.57;100081.69;5130074;27;20301;-69
2021/09/05 05:02:11;;;;;;;14.85;9.50;;;;;;;19.04;60.43;100090.16;5126925;27;20359;-69
2021/09/05 05:04:36;;;;;;;24.85;12.65;;;;;;;19.16;60.24;100099.22;5130328;27;20049;-73
2021/09/05 05:07:02;;;;;;;14.38;10.60;;;;;;;19.19;60.46;100098.78;5107858;27;20023;-68
2021/09/05 05:09:27;;;;;;;17.77;11.73;;;;;;;19.37;59.68;100098.97;5131576;27;20074;-70
2021/09/05 05:11:53;;;;;;;15.93;10.85;;;;;;;19.57;59.05;100103.47;5125166;27;20036;-69
2021/09/05 05:14:18;;;;;;;18.83;9.98;;;;;;;19.49;58.67;100101.81;5129251;27;20216;-72
2021/09/05 05:16:43;;;;;;;18.48;10.18;;;;;;;19.50;58.34;100094.59;5130675;27;20033;-72
2021/09/05 05:19:09;;;;;;;20.05;10.45;;;;;;;19.59;58.71;100104.09;5128467;27;20229;-73
2021/09/05 05:21:34;;;;;;;17.02;10.07;;;;;;;19.76;58.29;100099.91;5117567;27;20034;-69
2021/09/05 05:24:00;;;;;;;21.27;10.25;;;;;;;19.90;57.41;100090.78;5145508;27;20031;-73
2021/09/05 05:26:27;;;;;;;15.43;9.05;;;;;;;20.07;56.79;100101.84;5141347;27;20040;-73
2021/09/05 05:28:56;;;;;;;15.52;8.65;;;;;;;20.16;55.52;100105.94;5145777;27;20056;-69
2021/09/05 05:31:22;;;;;;;19.48;9.38;;;;;;;20.42;55.03;100104.16;5145690;27;20035;-73
2021/09/05 05:33:47;;;;;;;16.95;9.55;;;;;;;20.39;55.66;100114.31;5145793;27;20226;-73
2021/09/05 05:36:13;;;;;;;16.55;10.25;;;;;;;20.36;55.17;100100.44;5143810;27;20031;-69
2021/09/05 05:38:42;;;;;;;16.35;10.23;;;;;;;20.45;55.39;100106.41;5145755;27;20035;-70
2021/09/05 05:41:08;;;;;;;24.52;9.95;;;;;;;20.50;54.55;100109.25;5127394;27;20023;-73
2021/09/05 05:43:34;;;;;;;17.58;10.32;;;;;;;20.85;53.87;100101.56;5145236;27;20095;-73
2021/09/05 05:45:59;;;;;;;18.45;10.18;;;;;;;21.22;52.82;100097.94;5145538;27;20049;-69
2021/09/05 05:48:25;;;;;;;18.30;11.35;;;;;;;21.25;53.04;100108.25;5145307;27;20027;-73
2021/09/05 05:50:52;;;;;;;38.83;22.67;;;;;;;21.14;53.01;100114.34;5144350;27;20062;-73
2021/09/05 05:53:18;;;;;;;33.17;19.02;;;;;;;21.74;52.27;100116.44;5138271;27;20050;-73
2021/09/05 05:55:44;;;;;;;14.68;9.68;;;;;;;22.01;50.72;100112.38;5145165;27;20043;-73
2021/09/05 05:58:09;;;;;;;24.70;18.17;;;;;;;22.28;49.83;100112.88;5145369;27;20094;-73
2021/09/05 06:00:35;;;;;;;21.30;14.35;;;;;;;22.83;47.48;100105.38;5144985;27;20262;-73
2021/09/05 06:03:01;;;;;;;21.92;10.75;;;;;;;22.88;47.05;100110.91;5145029;27;20120;-71
2021/09/05 06:05:27;;;;;;;13.60;7.85;;;;;;;23.14;45.96;100106.13;5144131;27;20056;-69
2021/09/05 06:07:52;;;;;;;19.38;7.38;;;;;;;23.48;45.06;100107.97;5111655;27;20043;-73
2021/09/05 06:10:18;;;;;;;12.38;7.63;;;;;;;23.47;44.87;100103.63;5124718;27;20049;-69
2021/09/05 06:12:43;;;;;;;16.13;10.32;;;;;;;23.19;45.48;100111.66;5126887;27;20040;-73
2021/09/05 06:15:09;;;;;;;21.52;12.00;;;;;;;22.78;46.94;100113.34;5125594;27;20068;-73
2021/09/05 06:17:34;;;;;;;68.90;28.80;;;;;;;22.88;46.36;100116.31;5127597;27;20031;-69
2021/09/05 06:20:00;;;;;;;63.15;36.40;;;;;;;23.18;46.37;100108.13;5125279;27;20039;-69
2021/09/05 06:22:25;;;;;;;46.33;21.25;;;;;;;23.21;45.72;100112.25;5129033;27;20043;-73
2021/09/05 06:24:51;;;;;;;23.48;11.27;;;;;;;23.35;45.33;100110.94;5124633;27;20262;-73
2021/09/05 06:27:16;;;;;;;14.15;10.43;;;;;;;23.59;44.79;100113.63;5125992;27;20262;-73
2021/09/05 06:29:42;;;;;;;14.98;7.90;;;;;;;23.85;44.41;100113.91;5124217;27;20035;-69
2021/09/05 06:32:08;;;;;;;12.98;7.50;;;;;;;24.48;42.92;100112.16;5128422;27;20042;-69
2021/09/05 06:34:34;;;;;;;13.30;7.57;;;;;;;24.81;41.53;100112.19;5124828;27;20047;-73
2021/09/05 06:36:59;;;;;;;10.63;6.80;;;;;;;24.68;42.09;100106.28;5124436;27;20084;-73
2021/09/05 06:39:25;;;;;;;12.93;7.85;;;;;;;24.41;42.23;100114.22;5125350;27;20024;-73
2021/09/05 06:41:50;;;;;;;17.45;9.40;;;;;;;24.30;42.60;100115.91;5128404;27;20023;-72
2021/09/05 06:44:15;;;;;;;19.38;11.73;;;;;;;24.52;42.29;100111.44;5125804;27;20033;-67
2021/09/05 06:46:41;;;;;;;12.90;8.45;;;;;;;24.75;41.43;100115.06;5127469;27;20055;-71
2021/09/05 06:49:06;;;;;;;35.88;23.27;;;;;;;24.94;41.47;100121.88;5124194;27;20039;-67
2021/09/05 06:51:32;;;;;;;20.10;8.95;;;;;;;24.64;41.99;100124.91;5128898;27;20024;-67
2021/09/05 06:53:57;;;;;;;15.45;9.27;;;;;;;24.63;42.12;100127.84;5126250;27;20036;-73
2021/09/05 06:56:22;;;;;;;14.40;7.07;;;;;;;25.10;41.60;100141.97;5129512;27;20034;-73
2021/09/05 06:58:48;;;;;;;12.02;6.28;;;;;;;24.72;41.65;100132.63;5126108;27;20031;-69
2021/09/05 07:01:13;;;;;;;9.73;6.13;;;;;;;24.97;41.19;100139.53;5126472;27;20270;-71
2021/09/05 07:03:39;;;;;;;13.32;5.93;;;;;;;25.19;40.96;100143.19;5124818;27;20031;-71
2021/09/05 07:06:05;;;;;;;12.73;5.82;;;;;;;24.98;40.17;100138.53;5127488;27;20039;-69
2021/09/05 07:08:30;;;;;;;7.63;5.10;;;;;;;24.95;39.86;100138.94;5124595;27;20039;-69
2021/09/05 07:10:56;;;;;;;7.88;5.55;;;;;;;25.02;39.93;100142.38;5125941;27;20048;-73
2021/09/05 07:13:21;;;;;;;11.82;5.97;;;;;;;24.98;40.62;100143.94;5125135;27;20213;-72
2021/09/05 07:15:47;;;;;;;10.20;5.13;;;;;;;25.09;40.45;100143.03;5126354;27;20391;-71
2021/09/05 07:18:12;;;;;;;13.38;5.43;;;;;;;25.65;39.19;100144.69;5123542;27;20248;-67
2021/09/05 07:20:37;;;;;;;11.68;6.07;;;;;;;25.76;38.49;100141.03;5128256;27;20321;-67
2021/09/05 07:23:03;;;;;;;8.50;5.65;;;;;;;25.66;38.57;100140.06;5123595;27;20309;-67
2021/09/05 07:25:30;;;;;;;13.65;6.30;;;;;;;25.61;38.58;100139.97;5274132;22;20094;-70
2021/09/05 07:27:56;;;;;;;7.45;5.15;;;;;;;25.80;39.05;100132.38;5081944;28;20021;-70
2021/09/05 07:30:22;;;;;;;9.80;5.13;;;;;;;25.74;38.48;100145.06;5081900;28;20047;-70
2021/09/05 07:32:47;;;;;;;9.02;5.20;;;;;;;25.89;38.37;100149.84;5080854;28;20325;-70
2021/09/05 07:35:13;;;;;;;12.35;5.43;;;;;;;26.05;38.09;100149.00;5082193;28;20035;-70
2021/09/05 07:37:38;;;;;;;15.18;5.97;;;;;;;26.16;37.91;100148.03;5082317;28;20029;-70
2021/09/05 07:40:05;;;;;;;8.32;4.93;;;;;;;26.02;38.48;100146.78;5080773;28;20059;-70
2021/09/05 07:42:32;;;;;;;9.02;5.25;;;;;;;26.27;37.34;100149.78;5081850;28;20028;-71
2021/09/05 07:44:58;;;;;;;13.50;5.00;;;;;;;26.50;37.37;100151.41;5080608;28;20294;-71
2021/09/05 07:47:24;;;;;;;13.68;4.72;;;;;;;26.69;36.19;100141.00;5081849;28;20321;-71
2021/09/05 07:49:50;;;;;;;7.82;4.85;;;;;;;26.76;36.15;100151.63;5081899;28;20324;-71
2021/09/05 07:52:15;;;;;;;9.70;5.38;;;;;;;27.25;35.65;100142.28;5081905;28;20029;-70
2021/09/05 07:54:41;;;;;;;11.13;5.80;;;;;;;27.09;36.08;100135.13;5081814;28;20044;-70
2021/09/05 07:57:06;;;;;;;13.10;6.32;;;;;;;26.88;36.27;100147.66;5081967;28;20037;-70
2021/09/05 07:59:32;;;;;;;10.77;5.38;;;;;;;26.86;35.68;100151.72;5080439;28;20074;-70
2021/09/05 08:01:57;;;;;;;10.45;5.43;;;;;;;27.39;35.58;100144.56;5082016;28;20032;-71
2021/09/05 08:04:22;;;;;;;14.18;5.25;;;;;;;27.38;35.59;100138.28;5081516;28;20040;-70
2021/09/05 08:06:48;;;;;;;9.18;5.32;;;;;;;27.21;35.47;100143.91;5081553;28;20030;-67
2021/09/05 08:09:13;;;;;;;11.70;5.43;;;;;;;27.17;35.69;100137.34;5063453;28;20270;-70
2021/09/05 08:11:39;;;;;;;8.02;5.32;;;;;;;27.65;34.76;100133.56;5081419;28;20191;-70
2021/09/05 08:14:04;;;;;;;7.05;5.32;;;;;;;27.89;34.21;100128.50;5080982;28;20414;-70
2021/09/05 08:16:30;;;;;;;15.45;5.38;;;;;;;28.35;33.39;100136.84;5081689;28;20252;-71
2021/09/05 08:18:55;;;;;;;7.25;4.78;;;;;;;28.24;33.75;100143.38;5063629;28;20047;-71
2021/09/05 08:21:21;;;;;;;9.70;5.28;;;;;;;28.20;33.36;100134.06;5081293;28;20040;-71
2021/09/05 08:23:46;;;;;;;10.48;6.10;;;;;;;28.36;32.25;100135.75;5081969;28;20052;-70
2021/09/05 08:26:13;;;;;;;11.18;5.78;;;;;;;28.35;31.92;100138.75;5080996;28;20338;-71
2021/09/05 08:28:39;;;;;;;12.98;6.00;;;;;;;28.48;32.64;100125.44;5081543;28;20060;-71
2021/09/05 08:31:05;;;;;;;16.75;6.90;;;;;;;28.43;32.52;100132.78;5081367;28;20037;-71
2021/09/05 08:33:31;;;;;;;11.93;6.35;;;;;;;28.76;32.20;100134.97;5063429;28;20074;-71
2021/09/05 08:35:56;;;;;;;49.47;27.83;;;;;;;29.01;31.30;100136.91;5081420;28;20039;-70
2021/09/05 08:38:22;;;;;;;56.58;30.52;;;;;;;29.00;31.27;100132.56;5080708;28;20231;-70
2021/09/05 08:40:49;;;;;;;16.60;9.15;;;;;;;29.10;31.12;100131.72;5081586;28;20043;-71
2021/09/05 08:43:16;;;;;;;16.58;9.15;;;;;;;28.72;31.45;100128.44;5081104;28;20096;-71
2021/09/05 08:45:45;;;;;;;10.98;5.57;;;;;;;28.87;30.52;100128.47;5063051;28;20039;-70
2021/09/05 08:48:14;;;;;;;9.13;5.03;;;;;;;28.98;30.27;100117.56;5081150;28;20099;-71
2021/09/05 08:50:39;;;;;;;9.27;5.50;;;;;;;28.99;29.62;100132.81;5081487;28;20309;-71
2021/09/05 08:53:05;;;;;;;8.00;4.68;;;;;;;28.88;29.31;100119.19;5081009;28;20031;-71
2021/09/05 08:55:31;;;;;;;10.38;5.35;;;;;;;28.90;29.05;100122.47;5081329;28;20067;-71
2021/09/05 08:57:56;;;;;;;8.57;5.13;;;;;;;28.21;30.75;100111.19;5081612;28;20028;-71
2021/09/05 09:00:22;;;;;;;12.65;4.75;;;;;;;27.36;31.79;100121.41;5081054;28;20243;-70
2021/09/05 09:02:49;;;;;;;9.02;4.82;;;;;;;26.96;32.74;100114.59;5066634;28;20106;-70
2021/09/05 09:05:28;;;;;;;8.98;5.22;;;;;;;26.73;32.75;100107.63;5080949;28;20104;-73
2021/09/05 09:07:58;;;;;;;7.90;4.47;;;;;;;26.73;32.65;100109.50;5063304;28;20303;-73
2021/09/05 09:10:23;;;;;;;8.43;4.30;;;;;;;26.27;32.87;100097.38;5062980;28;20037;-73
2021/09/05 09:12:49;;;;;;;8.50;5.03;;;;;;;26.67;31.97;100108.66;5080958;28;20016;-73
2021/09/05 09:15:20;;;;;;;5.63;4.13;;;;;;;26.74;33.54;100108.44;5080871;28;20217;-73
2021/09/05 09:17:50;;;;;;;11.63;4.13;;;;;;;26.25;33.58;100107.69;5080681;28;20044;-73
2021/09/05 09:20:34;;;;;;;8.02;4.55;;;;;;;26.71;32.46;100089.94;5063201;28;20107;-73
2021/09/05 09:23:07;;;;;;;8.20;4.63;;;;;;;27.14;31.68;100085.41;5080734;28;20016;-71
2021/09/05 09:25:32;;;;;;;7.63;5.15;;;;;;;27.40;31.43;100094.53;5080531;28;20399;-70
2021/09/05 09:27:58;;;;;;;11.52;5.15;;;;;;;27.50;31.47;100092.66;5066929;28;20069;-70
2021/09/05 09:30:33;;;;;;;6.38;3.83;;;;;;;27.23;30.55;100018.59;5066358;28;20036;-70
2021/09/05 09:32:58;;;;;;;10.40;5.85;;;;;;;27.82;30.78;100094.47;5084501;28;20335;-71
2021/09/05 09:35:24;;;;;;;17.63;9.68;;;;;;;27.86;30.54;100093.66;5084376;28;20032;-70
2021/09/05 09:37:49;;;;;;;9.20;5.07;;;;;;;27.95;29.34;100085.78;5084816;28;20024;-70
2021/09/05 09:40:25;;;;;;;13.48;8.35;;;;;;;27.95;30.19;100083.88;5084378;28;20062;-73
2021/09/05 09:42:50;;;;;;;27.92;14.63;;;;;;;28.09;28.78;100077.94;5084138;28;20048;-73
2021/09/05 09:45:18;;;;;;;18.27;8.05;;;;;;;28.34;29.18;100083.47;5084123;28;20094;-73
2021/09/05 09:47:45;;;;;;;6.50;4.05;;;;;;;28.19;29.53;100078.78;5083071;28;20100;-73
2021/09/05 09:50:13;;;;;;;10.07;4.32;;;;;;;28.43;29.02;100079.13;5082616;28;20051;-73
2021/09/05 09:52:38;;;;;;;4.85;2.97;;;;;;;27.86;28.30;100081.94;5083066;28;20099;-73
2021/09/05 09:55:05;;;;;;;4.95;3.25;;;;;;;27.88;28.84;100082.50;5084031;28;20332;-72
2021/09/05 09:57:31;;;;;;;3.83;2.55;;;;;;;27.90;28.42;100081.16;5082734;28;20019;-72
2021/09/05 09:59:56;;;;;;;5.70;3.00;;;;;;;27.22;28.48;100074.03;5083766;28;20024;-71
2021/09/05 10:02:25;;;;;;;6.50;2.78;;;;;;;27.45;28.67;100078.22;5083845;28;20052;-70
2021/09/05 10:04:53;;;;;;;8.02;3.00;;;;;;;27.59;28.35;100080.19;5083779;28;20040;-70
2021/09/05 10:07:21;;;;;;;6.10;3.47;;;;;;;27.58;28.96;100078.56;5083713;28;20064;-70
2021/09/05 10:09:48;;;;;;;8.15;3.47;;;;;;;27.58;30.03;100078.56;5067055;28;20040;-70
2021/09/05 10:12:18;;;;;;;8.57;2.97;;;;;;;27.20;28.92;100057.16;5075421;28;20024;-71
2021/09/05 10:14:50;;;;;;;8.98;3.50;;;;;;;26.90;29.87;100079.47;5075489;28;20381;-71
2021/09/05 10:17:16;;;;;;;6.78;3.30;;;;;;;26.61;30.56;100081.72;5061287;28;20191;-70
2021/09/05 10:19:42;;;;;;;5.35;3.50;;;;;;;26.60;30.24;100071.91;5076259;28;20028;-70
2021/09/05 10:22:08;;;;;;;6.18;3.05;;;;;;;26.77;29.44;100060.91;5075748;28;20064;-70
2021/09/05 10:24:45;;;;;;;8.75;3.30;;;;;;;26.67;30.68;100075.22;5060801;28;20040;-70
2021/09/05 10:27:11;;;;;;;5.10;3.30;;;;;;;26.55;30.36;100063.72;5074479;28;20044;-71
2021/09/05 10:29:37;;;;;;;7.40;3.85;;;;;;;26.79;31.68;100069.63;5076410;28;20122;-70
2021/09/05 10:32:03;;;;;;;11.57;3.17;;;;;;;26.83;31.53;100071.56;5077978;28;20036;-70
2021/09/05 10:34:37;;;;;;;5.13;3.50;;;;;;;26.55;29.77;100071.88;5066732;28;20398;-72
2021/09/05 10:37:10;;;;;;;4.30;3.20;;;;;;;26.52;29.84;100066.97;5076031;28;20032;-72
2021/09/05 10:39:36;;;;;;;6.88;3.00;;;;;;;26.34;29.96;100065.44;5074733;28;20032;-73
2021/09/05 10:42:01;;;;;;;8.57;3.47;;;;;;;26.15;30.87;100075.81;5066985;28;20024;-73
2021/09/05 10:44:27;;;;;;;6.75;3.40;;;;;;;26.24;31.39;100082.44;5065960;28;20108;-73
2021/09/05 10:46:55;;;;;;;4.90;3.28;;;;;;;26.40;30.43;100067.13;5077068;28;20058;-73
2021/09/05 10:49:38;;;;;;;7.97;3.20;;;;;;;26.39;29.92;100070.94;5075582;28;20199;-73
2021/09/05 10:52:04;;;;;;;5.07;3.28;;;;;;;26.35;30.56;100061.66;5075912;28;20047;-73
2021/09/05 10:54:30;;;;;;;4.68;3.25;;;;;;;26.70;29.96;100067.38;5075995;28;20064;-70
2021/09/05 10:56:57;;;;;;;5.38;3.20;;;;;;;26.54;30.62;100068.34;5076527;28;20039;-70
2021/09/05 10:59:24;;;;;;;6.47;3.20;;;;;;;26.41;31.03;100066.06;5076280;28;20032;-70
2021/09/05 11:01:50;;;;;;;5.72;3.17;;;;;;;26.38;29.08;100064.69;5075273;28;20028;-72
2021/09/05 11:04:18;;;;;;;6.75;3.17;;;;;;;26.29;29.84;100066.19;5066818;28;20119;-73
2021/09/05 11:06:55;;;;;;;7.47;3.00;;;;;;;26.13;30.49;100064.41;5073655;28;20033;-73
2021/09/05 11:09:21;;;;;;;8.00;3.20;;;;;;;25.82;30.69;100067.84;5074904;28;20233;-73
2021/09/05 11:12:25;;;;;;;6.18;3.05;;;;;;;26.22;30.11;100065.59;5072871;28;20066;-73
2021/09/05 11:14:51;;;;;;;7.40;3.50;;;;;;;26.27;29.75;100062.91;5074893;28;20104;-70